createdAt,value
2019-04-22T00:00:44.824Z,101800.58
2019-04-22T00:03:17.971Z,101810.09
2019-04-22T00:06:07.251Z,101813.71
2019-04-22T00:08:43.289Z,101817.09
2019-04-22T00:11:23.980Z,101814.72
2019-04-22T00:13:55.546Z,101818.20
2019-04-22T00:16:19.143Z,101822.27
2019-04-22T00:19:02.983Z,101824.15
2019-04-22T00:21:26.355Z,101822.46
2019-04-22T00:23:52.587Z,101823.89
2019-04-22T00:26:26.103Z,101822.86
2019-04-22T00:28:59.302Z,101824.08
2019-04-22T00:31:47.963Z,101823.94
2019-04-22T00:34:21.283Z,101823.30
2019-04-22T00:36:48.118Z,101828.12
2019-04-22T00:39:33.722Z,101824.67
2019-04-22T00:41:57.022Z,101819.06
2019-04-22T00:44:29.992Z,101826.23
2019-04-22T00:47:01.191Z,101830.22
2019-04-22T00:52:06.285Z,101829.34
2019-04-22T00:54:36.217Z,101829.50
2019-04-22T00:57:01.532Z,101824.98
2019-04-22T00:59:28.646Z,101832.88
2019-04-22T01:02:07.561Z,101837.52
2019-04-22T01:04:44.211Z,101835.15
2019-04-22T01:07:11.521Z,101836.48
2019-04-22T01:09:46.383Z,101840.52
2019-04-22T01:12:13.630Z,101835.17
2019-04-22T01:14:41.311Z,101834.69
2019-04-22T01:17:12.117Z,101836.39
2019-04-22T01:19:52.616Z,101836.83
2019-04-22T01:22:17.579Z,101835.78
2019-04-22T01:24:50.279Z,101836.39
2019-04-22T01:27:17.469Z,101833.61
2019-04-22T01:29:46.906Z,101836.39
2019-04-22T01:32:13.198Z,101827.08
2019-04-22T01:34:51.513Z,101828.12
2019-04-22T01:37:27.094Z,101831.26
2019-04-22T01:40:06.569Z,101838.38
2019-04-22T01:42:44.370Z,101829.84
2019-04-22T01:45:06.681Z,101828.43
2019-04-22T01:47:36.744Z,101828.61
2019-04-22T01:50:12.124Z,101831.02
2019-04-22T01:52:47.360Z,101833.00
2019-04-22T01:55:22.595Z,101842.63
2019-04-22T01:57:44.479Z,101842.24
2019-04-22T02:00:05.051Z,101838.33
2019-04-22T02:02:48.957Z,101838.25
2019-04-22T02:05:19.068Z,101840.70
2019-04-22T02:07:51.538Z,101845.13
2019-04-22T02:10:30.130Z,101846.27
2019-04-22T02:12:58.803Z,101844.70
2019-04-22T02:15:23.783Z,101851.09
2019-04-22T02:18:01.239Z,101846.73
2019-04-22T02:20:31.112Z,101849.72
2019-04-22T02:26:13.022Z,101852.79
2019-04-22T02:28:47.653Z,101858.71
2019-04-22T02:36:23.027Z,101857.13
2019-04-22T02:38:58.774Z,101864.64
2019-04-22T02:49:04.157Z,101865.98
2019-04-22T02:51:22.164Z,101873.89
2019-04-22T02:56:39.610Z,101882.30
2019-04-22T03:14:04.866Z,101884.81
2019-04-22T03:26:50.431Z,101895.50
2019-04-22T03:29:14.932Z,101892.68
2019-04-22T03:37:23.315Z,101899.30
2019-04-22T03:44:51.790Z,101907.03
2019-04-22T03:47:21.676Z,101907.03
2019-04-22T03:52:18.046Z,101908.06
2019-04-22T03:54:47.698Z,101917.63
2019-04-22T03:59:51.950Z,101920.21
2019-04-22T04:02:22.001Z,101922.37
2019-04-22T04:04:41.615Z,101919.80
2019-04-22T04:12:25.160Z,101914.63
2019-04-22T04:15:06.064Z,101917.16
2019-04-22T04:17:37.832Z,101924.04
2019-04-22T04:22:46.661Z,101924.74
2019-04-22T04:25:22.077Z,101925.95
2019-04-22T04:32:52.517Z,101922.61
2019-04-22T04:37:44.579Z,101927.00
2019-04-22T04:40:28.811Z,101925.37
2019-04-22T04:42:46.262Z,101923.41
2019-04-22T04:50:18.382Z,101936.38
2019-04-22T04:53:01.458Z,101926.61
2019-04-22T04:55:25.864Z,101925.19
2019-04-22T04:58:13.789Z,101937.61
2019-04-22T05:00:37.328Z,101936.08
2019-04-22T05:02:58.471Z,101926.91
2019-04-22T05:05:28.884Z,101923.68
2019-04-22T05:07:55.413Z,101934.05
2019-04-22T05:10:47.807Z,101938.95
2019-04-22T05:18:05.763Z,101933.09
2019-04-22T05:20:44.826Z,101935.96
2019-04-22T05:23:08.301Z,101938.89
2019-04-22T05:25:31.980Z,101937.33
2019-04-22T05:28:07.550Z,101932.14
2019-04-22T05:30:43.738Z,101929.61
2019-04-22T05:33:09.300Z,101923.36
2019-04-22T05:35:43.102Z,101939.73
2019-04-22T05:38:17.264Z,101932.19
2019-04-22T05:40:44.103Z,101934.89
2019-04-22T05:43:22.615Z,101922.60
2019-04-22T05:45:52.680Z,101921.31
2019-04-22T05:48:30.170Z,101923.52
2019-04-22T05:50:56.436Z,101926.86
2019-04-22T05:53:25.892Z,101930.19
2019-04-22T05:55:59.749Z,101933.36
2019-04-22T05:58:29.376Z,101927.16
2019-04-22T06:03:49.270Z,101925.69
2019-04-22T06:06:22.574Z,101937.44
2019-04-22T06:08:55.895Z,101941.30
2019-04-22T06:11:29.393Z,101937.00
2019-04-22T06:13:51.967Z,101929.41
2019-04-22T06:16:31.280Z,101934.19
2019-04-22T06:21:35.429Z,101934.88
2019-04-22T06:24:14.128Z,101932.47
2019-04-22T06:29:15.010Z,101928.73
2019-04-22T06:32:08.093Z,101927.55
2019-04-22T06:34:20.838Z,101932.63
2019-04-22T06:39:25.975Z,101931.84
2019-04-22T06:41:58.877Z,101929.56
2019-04-22T06:47:05.326Z,101926.75
2019-04-22T06:49:38.334Z,101909.78
2019-04-22T06:52:16.881Z,101913.22
2019-04-22T06:55:05.963Z,101905.84
2019-04-22T06:57:13.786Z,101909.30
2019-04-22T07:00:06.353Z,101909.29
2019-04-22T07:02:26.713Z,101916.66
2019-04-22T07:04:49.471Z,101908.37
2019-04-22T07:07:22.055Z,101905.61
2019-04-22T07:10:02.554Z,101902.14
2019-04-22T07:12:26.033Z,101910.55
2019-04-22T07:15:01.696Z,101910.37
2019-04-22T07:20:48.057Z,101916.81
2019-04-22T07:23:25.917Z,101923.80
2019-04-22T07:25:49.921Z,101927.34
2019-04-22T07:34:47.402Z,101925.98
2019-04-22T07:37:29.598Z,101922.89
2019-04-22T07:40:01.845Z,101918.17
2019-04-22T07:42:30.035Z,101919.48
2019-04-22T07:44:54.841Z,101919.13
2019-04-22T07:50:08.427Z,101913.34
2019-04-22T07:52:33.643Z,101896.16
2019-04-22T07:55:18.377Z,101912.98
2019-04-22T07:57:39.654Z,101917.56
2019-04-22T08:00:15.987Z,101921.75
2019-04-22T08:05:20.650Z,101910.48
2019-04-22T08:08:02.605Z,101913.58
2019-04-22T08:10:30.209Z,101913.09
2019-04-22T08:13:01.924Z,101914.42
2019-04-22T08:15:33.069Z,101908.06
2019-04-22T08:18:02.928Z,101904.61
2019-04-22T08:20:35.081Z,101906.67
2019-04-22T08:23:09.247Z,101902.98
2019-04-22T08:26:11.144Z,101902.74
2019-04-22T08:28:46.498Z,101902.85
2019-04-22T08:31:20.295Z,101903.27
2019-04-22T08:34:01.731Z,101901.17
2019-04-22T08:37:12.169Z,101894.19
2019-04-22T08:39:21.445Z,101891.84
2019-04-22T08:41:40.310Z,101884.52
2019-04-22T08:44:27.967Z,101875.75
2019-04-22T08:46:56.168Z,101882.59
2019-04-22T08:49:30.477Z,101880.57
2019-04-22T08:51:58.881Z,101878.16
2019-04-22T08:54:33.412Z,101864.25
2019-04-22T08:57:06.802Z,101871.38
2019-04-22T08:59:39.565Z,101866.17
2019-04-22T09:02:19.959Z,101867.05
2019-04-22T09:04:45.373Z,101868.70
2019-04-22T09:07:21.189Z,101872.08
2019-04-22T09:09:55.684Z,101867.37
2019-04-22T09:12:33.147Z,101871.84
2019-04-22T09:14:47.595Z,101875.97
2019-04-22T09:17:31.823Z,101871.65
2019-04-22T09:20:00.003Z,101865.94
2019-04-22T09:22:50.344Z,101867.17
2019-04-22T09:25:03.094Z,101859.07
2019-04-22T09:27:42.959Z,101873.30
2019-04-22T09:30:22.390Z,101871.77
2019-04-22T09:32:56.247Z,101869.16
2019-04-22T09:35:25.125Z,101865.08
2019-04-22T09:37:57.364Z,101871.00
2019-04-22T09:40:21.691Z,101867.36
2019-04-22T09:42:56.148Z,101873.02
2019-04-22T09:45:27.563Z,101866.52
2019-04-22T09:48:08.388Z,101866.19
2019-04-22T09:53:08.327Z,101870.20
2019-04-22T09:55:37.396Z,101875.55
2019-04-22T09:58:11.878Z,101878.68
2019-04-22T10:00:55.876Z,101870.56
2019-04-22T10:03:20.357Z,101864.44
2019-04-22T10:05:52.728Z,101865.31
2019-04-22T10:08:24.072Z,101863.47
2019-04-22T10:10:57.732Z,101866.97
2019-04-22T10:13:34.711Z,101855.80
2019-04-22T10:16:08.061Z,101854.73
2019-04-22T10:18:41.738Z,101846.39
2019-04-22T10:21:18.862Z,101843.13
2019-04-22T10:23:41.672Z,101847.88
2019-04-22T10:26:18.828Z,101847.94
2019-04-22T10:28:52.805Z,101847.30
2019-04-22T10:31:19.397Z,101835.47
2019-04-22T10:33:42.252Z,101840.67
2019-04-22T10:35:55.346Z,101830.83
2019-04-22T10:38:26.476Z,101833.52
2019-04-22T10:41:00.702Z,101823.30
2019-04-22T10:43:32.821Z,101830.98
2019-04-22T10:46:04.093Z,101826.75
2019-04-22T10:52:06.941Z,101829.89
2019-04-22T10:54:56.841Z,101822.48
2019-04-22T10:57:27.640Z,101817.98
2019-04-22T10:59:58.547Z,101816.33
2019-04-22T11:02:31.826Z,101809.49
2019-04-22T11:05:02.096Z,101824.03
2019-04-22T11:07:40.453Z,101815.28
2019-04-22T11:10:20.472Z,101813.19
2019-04-22T11:12:39.460Z,101816.63
2019-04-22T11:15:11.661Z,101801.29
2019-04-22T11:17:41.870Z,101810.59
2019-04-22T11:20:13.420Z,101806.19
2019-04-22T11:22:44.628Z,101794.91
2019-04-22T11:25:16.080Z,101798.91
2019-04-22T11:27:47.688Z,101793.72
2019-04-22T11:30:20.975Z,101792.09
2019-04-22T11:32:50.653Z,101786.45
2019-04-22T11:35:21.847Z,101787.13
2019-04-22T11:38:06.592Z,101784.16
2019-04-22T11:40:36.390Z,101786.25
2019-04-22T11:43:00.002Z,101786.48
2019-04-22T11:45:35.401Z,101784.94
2019-04-22T11:48:09.048Z,101774.29
2019-04-22T11:50:39.998Z,101767.60
2019-04-22T11:53:10.983Z,101765.62
2019-04-22T11:55:42.454Z,101764.29
2019-04-22T11:58:12.938Z,101762.80
2019-04-22T12:00:43.290Z,101762.56
2019-04-22T12:03:14.807Z,101762.86
2019-04-22T12:05:46.049Z,101767.59
2019-04-22T12:08:17.251Z,101761.53
2019-04-22T12:10:54.210Z,101758.82
2019-04-22T12:13:19.837Z,101763.98
2019-04-22T12:15:51.149Z,101770.20
2019-04-22T12:18:22.931Z,101770.49
2019-04-22T12:20:53.187Z,101753.20
2019-04-22T12:23:23.208Z,101749.30
2019-04-22T12:25:59.938Z,101747.99
2019-04-22T12:28:26.691Z,101757.83
2019-04-22T12:30:59.524Z,101746.14
2019-04-22T12:33:29.654Z,101753.55
2019-04-22T12:36:00.362Z,101747.77
2019-04-22T12:38:31.500Z,101750.58
2019-04-22T12:41:06.286Z,101749.68
2019-04-22T12:43:33.658Z,101743.64
2019-04-22T12:46:03.611Z,101753.99
2019-04-22T12:48:34.927Z,101754.29
2019-04-22T12:51:05.346Z,101748.64
2019-04-22T12:53:38.129Z,101745.48
2019-04-22T12:56:09.112Z,101743.98
2019-04-22T12:58:39.024Z,101743.27
2019-04-22T13:01:09.031Z,101757.46
2019-04-22T13:03:42.727Z,101749.88
2019-04-22T13:06:14.064Z,101744.86
2019-04-22T13:08:47.665Z,101743.48
2019-04-22T13:11:22.993Z,101760.62
2019-04-22T13:13:53.013Z,101756.60
2019-04-22T13:16:23.029Z,101748.13
2019-04-22T13:18:59.043Z,101738.44
2019-04-22T13:21:25.032Z,101735.49
2019-04-22T13:24:02.529Z,101741.19
2019-04-22T13:26:33.810Z,101737.20
2019-04-22T13:29:05.188Z,101748.68
2019-04-22T13:31:35.283Z,101744.95
2019-04-22T13:34:09.493Z,101741.61
2019-04-22T13:36:36.717Z,101741.14
2019-04-22T13:39:07.352Z,101741.53
2019-04-22T13:41:48.038Z,101739.88
2019-04-22T13:44:12.754Z,101738.13
2019-04-22T13:47:06.818Z,101733.99
2019-04-22T13:49:49.473Z,101738.87
2019-04-22T13:52:31.939Z,101745.06
2019-04-22T13:57:20.064Z,101738.04
2019-04-22T13:59:38.890Z,101733.10
2019-04-22T14:02:12.810Z,101735.78
2019-04-22T14:04:48.829Z,101732.34
2019-04-22T14:07:20.887Z,101740.03
2019-04-22T14:09:50.819Z,101733.83
2019-04-22T14:12:26.664Z,101735.71
2019-04-22T14:14:58.459Z,101741.91
2019-04-22T14:17:32.499Z,101742.34
2019-04-22T14:20:02.661Z,101734.86
2019-04-22T14:22:32.585Z,101742.30
2019-04-22T14:25:02.884Z,101738.73
2019-04-22T14:27:45.578Z,101733.37
2019-04-22T14:30:06.447Z,101733.11
2019-04-22T14:32:37.950Z,101741.07
2019-04-22T14:35:09.395Z,101743.36
2019-04-22T14:37:40.282Z,101745.47
2019-04-22T14:40:12.305Z,101746.45
2019-04-22T14:43:00.534Z,101745.53
2019-04-22T14:46:04.025Z,101749.11
2019-04-22T14:48:11.012Z,101754.70
2019-04-22T14:50:42.245Z,101758.56
2019-04-22T14:53:09.876Z,101759.53
2019-04-22T14:55:26.907Z,101752.37
2019-04-22T14:57:54.957Z,101756.78
2019-04-22T15:00:27.274Z,101762.37
2019-04-22T15:02:57.588Z,101763.55
2019-04-22T15:05:28.183Z,101776.07
2019-04-22T15:07:59.168Z,101769.34
2019-04-22T15:10:31.632Z,101765.96
2019-04-22T15:13:03.089Z,101765.31
2019-04-22T15:15:43.610Z,101768.66
2019-04-22T15:18:10.765Z,101760.49
2019-04-22T15:20:48.740Z,101763.43
2019-04-22T15:23:17.643Z,101765.99
2019-04-22T15:25:48.395Z,101772.55
2019-04-22T15:28:19.827Z,101773.25
2019-04-22T15:30:53.227Z,101780.02
2019-04-22T15:33:25.871Z,101774.75
2019-04-22T15:35:55.737Z,101777.24
2019-04-22T15:38:26.150Z,101780.23
2019-04-22T15:40:58.687Z,101782.43
2019-04-22T15:43:31.246Z,101785.31
2019-04-22T15:46:03.346Z,101786.31
2019-04-22T15:48:34.122Z,101791.12
2019-04-22T15:51:05.081Z,101793.64
2019-04-22T15:53:35.806Z,101800.20
2019-04-22T15:56:06.056Z,101799.69
2019-04-22T15:58:35.945Z,101801.77
2019-04-22T16:01:12.930Z,101801.32
2019-04-22T16:03:40.640Z,101810.45
2019-04-22T16:06:12.200Z,101802.99
2019-04-22T16:08:43.690Z,101801.29
2019-04-22T16:11:14.082Z,101810.88
2019-04-22T16:13:44.306Z,101812.75
2019-04-22T16:16:14.600Z,101813.27
2019-04-22T16:18:44.572Z,101813.27
2019-04-22T16:21:27.677Z,101818.41
2019-04-22T16:24:04.538Z,101814.10
2019-04-22T16:26:52.055Z,101816.92
2019-04-22T16:29:23.306Z,101822.95
2019-04-22T16:31:53.478Z,101827.61
2019-04-22T16:34:23.844Z,101829.00
2019-04-22T16:36:54.614Z,101830.42
2019-04-22T16:39:26.742Z,101831.33
2019-04-22T16:41:57.010Z,101832.54
2019-04-22T16:44:27.987Z,101836.95
2019-04-22T16:46:57.812Z,101843.58
2019-04-22T16:49:27.823Z,101841.77
2019-04-22T16:51:58.415Z,101853.23
2019-04-22T16:54:27.846Z,101851.45
2019-04-22T16:56:57.684Z,101853.64
2019-04-22T16:59:28.673Z,101867.25
2019-04-22T17:02:12.886Z,101859.49
2019-04-22T17:04:44.484Z,101862.48
2019-04-22T17:07:16.151Z,101867.44
2019-04-22T17:09:46.103Z,101862.41
2019-04-22T17:12:16.226Z,101867.50
2019-04-22T17:14:52.690Z,101879.38
2019-04-22T17:17:18.312Z,101880.02
2019-04-22T17:19:49.406Z,101886.67
2019-04-22T17:22:19.699Z,101886.52
2019-04-22T17:25:00.124Z,101884.30
2019-04-22T17:30:43.793Z,101898.69
2019-04-22T17:39:31.611Z,101907.36
2019-04-22T17:42:10.924Z,101909.22
2019-04-22T17:44:48.356Z,101915.83
2019-04-22T17:47:20.621Z,101918.42
2019-04-22T17:50:08.297Z,101919.92
2019-04-22T17:52:39.261Z,101918.64
2019-04-22T17:55:11.233Z,101914.29
2019-04-22T17:57:41.599Z,101927.22
2019-04-22T18:00:23.598Z,101922.41
2019-04-22T18:02:45.919Z,101928.49
2019-04-22T18:05:07.611Z,101927.36
2019-04-22T18:07:54.875Z,101924.50
2019-04-22T18:13:12.044Z,101925.42
2019-04-22T18:15:29.391Z,101930.47
2019-04-22T18:18:09.136Z,101930.25
2019-04-22T18:20:32.228Z,101930.47
2019-04-22T18:22:56.774Z,101927.92
2019-04-22T18:25:34.212Z,101927.38
2019-04-22T18:30:35.299Z,101926.74
2019-04-22T18:33:19.382Z,101926.56
2019-04-22T18:35:44.488Z,101929.98
2019-04-22T18:38:33.157Z,101925.53
2019-04-22T18:40:53.655Z,101928.98
2019-04-22T18:43:27.723Z,101927.41
2019-04-22T18:46:06.544Z,101925.98
2019-04-22T18:48:33.303Z,101932.88
2019-04-22T18:51:17.225Z,101936.52
2019-04-22T18:53:56.935Z,101938.45
2019-04-22T18:56:22.017Z,101936.67
2019-04-22T18:58:44.934Z,101934.73
2019-04-22T19:01:05.960Z,101938.80
2019-04-22T19:03:49.713Z,101941.69
2019-04-22T19:06:44.090Z,101936.85
2019-04-22T19:09:05.620Z,101939.58
2019-04-22T19:11:35.462Z,101931.42
2019-04-22T19:14:02.308Z,101933.97
2019-04-22T19:19:27.513Z,101942.28
2019-04-22T19:21:37.970Z,101936.91
2019-04-22T19:24:09.478Z,101939.84
2019-04-22T19:26:50.075Z,101946.67
2019-04-22T19:29:16.875Z,101944.06
2019-04-22T19:31:45.474Z,101941.73
2019-04-22T19:34:16.620Z,101946.55
2019-04-22T19:36:51.599Z,101940.55
2019-04-22T19:39:19.246Z,101947.23
2019-04-22T19:41:55.570Z,101946.56
2019-04-22T19:44:29.153Z,101948.40
2019-04-22T19:47:18.161Z,101943.30
2019-04-22T19:49:42.715Z,101941.31
2019-04-22T19:52:11.239Z,101949.54
2019-04-22T19:54:34.146Z,101949.25
2019-04-22T19:56:57.443Z,101949.80
2019-04-22T19:59:32.748Z,101953.55
2019-04-22T20:02:04.595Z,101961.93
2019-04-22T20:04:46.301Z,101965.91
2019-04-22T20:07:14.134Z,101963.94
2019-04-22T20:09:49.397Z,101966.64
2019-04-22T20:12:16.565Z,101962.44
2019-04-22T20:14:49.718Z,101966.06
2019-04-22T20:17:28.613Z,101973.67
2019-04-22T20:19:55.502Z,101971.83
2019-04-22T20:22:26.720Z,101971.28
2019-04-22T20:24:47.583Z,101967.33
2019-04-22T20:27:30.338Z,101969.31
2019-04-22T20:29:58.274Z,101969.44
2019-04-22T20:32:26.581Z,101973.20
2019-04-22T20:35:06.012Z,101979.98
2019-04-22T20:37:38.562Z,101978.81
2019-04-22T20:40:05.499Z,101984.50
2019-04-22T20:42:43.761Z,101985.72
2019-04-22T20:45:11.743Z,101992.13
2019-04-22T20:47:35.738Z,101987.42
2019-04-22T20:50:10.898Z,101992.29
2019-04-22T20:55:10.777Z,101988.78
2019-04-22T20:57:48.302Z,101988.42
2019-04-22T21:00:15.084Z,101989.12
2019-04-22T21:02:40.192Z,101998.73
2019-04-22T21:05:16.753Z,101997.89
2019-04-22T21:08:01.545Z,101998.91
2019-04-22T21:10:18.608Z,101998.58
2019-04-22T21:12:54.253Z,102003.66
2019-04-22T21:15:31.454Z,102003.28
2019-04-22T21:18:01.192Z,102002.61
2019-04-22T21:20:41.169Z,101998.58
2019-04-22T21:23:02.944Z,101997.91
2019-04-22T21:25:26.402Z,101993.86
2019-04-22T21:28:11.322Z,102006.99
2019-04-22T21:30:37.657Z,102008.16
2019-04-22T21:33:08.289Z,102014.79
2019-04-22T21:35:55.047Z,102011.74
2019-04-22T21:38:19.014Z,102011.74
2019-04-22T21:40:43.802Z,102010.05
2019-04-22T21:43:18.514Z,102006.84
2019-04-22T21:45:45.426Z,102020.20
2019-04-22T21:48:27.933Z,102007.02
2019-04-22T21:51:04.817Z,102017.13
2019-04-22T21:53:31.825Z,102010.34
2019-04-22T21:56:00.348Z,102012.90
2019-04-22T21:58:31.849Z,102014.53
2019-04-22T22:01:33.037Z,102018.39
2019-04-22T22:03:55.539Z,102019.36
2019-04-22T22:06:15.123Z,102016.45
2019-04-22T22:08:57.865Z,102015.17
2019-04-22T22:11:24.106Z,102019.44
2019-04-22T22:13:56.382Z,102018.77
2019-04-22T22:16:25.069Z,102019.39
2019-04-22T22:19:00.831Z,102017.96
2019-04-22T22:21:40.711Z,102018.30
2019-04-22T22:24:08.980Z,102017.05
2019-04-22T22:26:40.099Z,102020.98
2019-04-22T22:29:10.161Z,102017.96
2019-04-22T22:34:13.747Z,102011.28
2019-04-22T22:36:36.328Z,102009.88
2019-04-22T22:39:09.972Z,102014.27
2019-04-22T22:41:25.963Z,102022.55
2019-04-22T22:44:03.218Z,102011.36
2019-04-22T22:46:37.430Z,102012.86
2019-04-22T22:49:23.708Z,102015.03
2019-04-22T22:52:00.015Z,102021.73
2019-04-22T22:54:25.113Z,102021.80
2019-04-22T22:57:17.696Z,102033.89
2019-04-22T22:59:29.215Z,102031.11
2019-04-22T23:01:54.142Z,102027.73
2019-04-22T23:04:37.623Z,102032.36
2019-04-22T23:07:06.911Z,102031.62
2019-04-22T23:09:30.766Z,102034.98
2019-04-22T23:12:12.172Z,102027.01
2019-04-22T23:14:38.211Z,102033.47
2019-04-22T23:16:55.044Z,102030.61
2019-04-22T23:19:17.943Z,102033.39
2019-04-22T23:21:52.677Z,102029.72
2019-04-22T23:24:58.163Z,102029.69
2019-04-22T23:27:40.278Z,102027.32
2019-04-22T23:30:05.394Z,102038.98
2019-04-22T23:32:35.725Z,102040.83
2019-04-22T23:35:33.261Z,102041.73
2019-04-22T23:38:12.081Z,102035.17
2019-04-22T23:40:38.602Z,102040.88
2019-04-22T23:43:15.314Z,102043.86
2019-04-22T23:45:46.670Z,102040.86
2019-04-22T23:48:13.065Z,102040.37
2019-04-22T23:50:54.146Z,102036.97
2019-04-22T23:53:33.122Z,102043.43
2019-04-22T23:56:01.809Z,102048.78
2019-04-22T23:58:50.029Z,102041.97
